sensor_id;sensor_type;location;lat;lon;timestamp;temperature;humidity
63899;HTU21D;50070;-32.946;-60.652;2023-08-06T00:01:26;18.99;100.68
63899;HTU21D;50070;-32.946;-60.652;2023-08-06T00:03:53;18.98;100.94
63899;HTU21D;50070;-32.946;-60.652;2023-08-06T00:06:20;18.96;100.99
63899;HTU21D;50070;-32.946;-60.652;2023-08-06T00:08:48;18.99;100.45
63899;HTU21D;50070;-32.946;-60.652;2023-08-06T00:11:15;18.95;100.77
63899;HTU21D;50070;-32.946;-60.652;2023-08-06T00:13:42;18.92;101.36
63899;HTU21D;50070;-32.946;-60.652;2023-08-06T00:16:10;18.86;101.96
63899;HTU21D;50070;-32.946;-60.652;2023-08-06T00:18:37;18.95;100.95
63899;HTU21D;50070;-32.946;-60.652;2023-08-06T00:21:04;18.80;102.17
63899;HTU21D;50070;-32.946;-60.652;2023-08-06T00:23:31;18.80;102.25
63899;HTU21D;50070;-32.946;-60.652;2023-08-06T00:25:58;18.87;101.54
63899;HTU21D;50070;-32.946;-60.652;2023-08-06T00:28:25;18.74;102.80
63899;HTU21D;50070;-32.946;-60.652;2023-08-06T00:30:56;18.70;103.58
63899;HTU21D;50070;-32.946;-60.652;2023-08-06T00:33:23;18.81;102.38
63899;HTU21D;50070;-32.946;-60.652;2023-08-06T00:35:51;18.58;104.21
63899;HTU21D;50070;-32.946;-60.652;2023-08-06T00:38:17;18.47;105.82
63899;HTU21D;50070;-32.946;-60.652;2023-08-06T00:40:44;18.67;103.91
63899;HTU21D;50070;-32.946;-60.652;2023-08-06T00:43:12;18.71;103.38
63899;HTU21D;50070;-32.946;-60.652;2023-08-06T00:45:39;18.72;103.60
63899;HTU21D;50070;-32.946;-60.652;2023-08-06T00:48:06;18.68;104.29
63899;HTU21D;50070;-32.946;-60.652;2023-08-06T00:50:33;18.69;104.16
63899;HTU21D;50070;-32.946;-60.652;2023-08-06T00:53:00;18.63;105.09
63899;HTU21D;50070;-32.946;-60.652;2023-08-06T00:55:27;18.57;105.57
63899;HTU21D;50070;-32.946;-60.652;2023-08-06T00:57:54;18.43;106.89
63899;HTU21D;50070;-32.946;-60.652;2023-08-06T01:00:23;18.52;106.07
63899;HTU21D;50070;-32.946;-60.652;2023-08-06T01:02:50;18.63;104.48
63899;HTU21D;50070;-32.946;-60.652;2023-08-06T01:05:17;18.61;104.44
63899;HTU21D;50070;-32.946;-60.652;2023-08-06T01:10:59;18.48;105.98
63899;HTU21D;50070;-32.946;-60.652;2023-08-06T01:13:43;18.40;106.74
63899;HTU21D;50070;-32.946;-60.652;2023-08-06T01:16:18;18.34;107.03
63899;HTU21D;50070;-32.946;-60.652;2023-08-06T01:18:46;18.20;108.64
63899;HTU21D;50070;-32.946;-60.652;2023-08-06T01:21:18;18.19;108.17
63899;HTU21D;50070;-32.946;-60.652;2023-08-06T01:23:46;18.02;109.59
63899;HTU21D;50070;-32.946;-60.652;2023-08-06T01:29:05;17.78;110.74
63899;HTU21D;50070;-32.946;-60.652;2023-08-06T01:31:36;17.75;110.96
63899;HTU21D;50070;-32.946;-60.652;2023-08-06T01:34:07;17.84;110.52
63899;HTU21D;50070;-32.946;-60.652;2023-08-06T01:36:35;17.74;110.97
63899;HTU21D;50070;-32.946;-60.652;2023-08-06T01:39:02;17.84;109.61
63899;HTU21D;50070;-32.946;-60.652;2023-08-06T01:41:31;17.67;111.11
63899;HTU21D;50070;-32.946;-60.652;2023-08-06T01:43:57;17.75;110.17
63899;HTU21D;50070;-32.946;-60.652;2023-08-06T01:46:24;17.79;109.95
63899;HTU21D;50070;-32.946;-60.652;2023-08-06T01:48:51;17.73;110.44
63899;HTU21D;50070;-32.946;-60.652;2023-08-06T01:51:18;17.64;111.74
63899;HTU21D;50070;-32.946;-60.652;2023-08-06T01:53:44;17.65;111.84
63899;HTU21D;50070;-32.946;-60.652;2023-08-06T01:56:11;17.67;111.43
63899;HTU21D;50070;-32.946;-60.652;2023-08-06T01:58:38;17.78;110.53
63899;HTU21D;50070;-32.946;-60.652;2023-08-06T02:01:05;17.67;111.55
63899;HTU21D;50070;-32.946;-60.652;2023-08-06T02:03:31;17.95;109.23
63899;HTU21D;50070;-32.946;-60.652;2023-08-06T02:05:58;17.89;109.27
63899;HTU21D;50070;-32.946;-60.652;2023-08-06T02:08:26;17.58;112.34
63899;HTU21D;50070;-32.946;-60.652;2023-08-06T02:10:53;17.59;111.99
63899;HTU21D;50070;-32.946;-60.652;2023-08-06T02:13:20;17.63;111.77
63899;HTU21D;50070;-32.946;-60.652;2023-08-06T02:15:47;17.60;112.35
63899;HTU21D;50070;-32.946;-60.652;2023-08-06T02:18:14;17.66;111.64
63899;HTU21D;50070;-32.946;-60.652;2023-08-06T02:20:41;17.74;110.61
63899;HTU21D;50070;-32.946;-60.652;2023-08-06T02:23:08;17.75;110.23
63899;HTU21D;50070;-32.946;-60.652;2023-08-06T02:25:35;17.56;112.26
63899;HTU21D;50070;-32.946;-60.652;2023-08-06T02:28:02;17.64;111.73
63899;HTU21D;50070;-32.946;-60.652;2023-08-06T02:30:29;17.77;110.22
63899;HTU21D;50070;-32.946;-60.652;2023-08-06T02:32:56;17.62;111.48
63899;HTU21D;50070;-32.946;-60.652;2023-08-06T02:35:23;17.56;112.00
63899;HTU21D;50070;-32.946;-60.652;2023-08-06T02:37:50;17.65;111.72
63899;HTU21D;50070;-32.946;-60.652;2023-08-06T02:40:17;17.76;110.44
63899;HTU21D;50070;-32.946;-60.652;2023-08-06T02:42:43;17.70;110.89
63899;HTU21D;50070;-32.946;-60.652;2023-08-06T02:45:10;17.65;111.09
63899;HTU21D;50070;-32.946;-60.652;2023-08-06T02:47:36;17.83;109.87
63899;HTU21D;50070;-32.946;-60.652;2023-08-06T02:50:03;17.74;110.52
63899;HTU21D;50070;-32.946;-60.652;2023-08-06T02:52:30;17.74;110.74
63899;HTU21D;50070;-32.946;-60.652;2023-08-06T02:54:57;17.65;111.81
63899;HTU21D;50070;-32.946;-60.652;2023-08-06T02:57:26;17.68;111.71
63899;HTU21D;50070;-32.946;-60.652;2023-08-06T02:59:53;17.64;111.99
63899;HTU21D;50070;-32.946;-60.652;2023-08-06T03:02:19;17.81;110.94
63899;HTU21D;50070;-32.946;-60.652;2023-08-06T03:04:46;17.73;111.39
63899;HTU21D;50070;-32.946;-60.652;2023-08-06T03:07:13;17.53;113.72
63899;HTU21D;50070;-32.946;-60.652;2023-08-06T03:09:40;17.65;112.52
63899;HTU21D;50070;-32.946;-60.652;2023-08-06T03:12:07;17.61;113.16
63899;HTU21D;50070;-32.946;-60.652;2023-08-06T03:14:34;17.68;112.44
63899;HTU21D;50070;-32.946;-60.652;2023-08-06T03:17:00;17.60;113.31
63899;HTU21D;50070;-32.946;-60.652;2023-08-06T03:19:26;17.68;112.68
63899;HTU21D;50070;-32.946;-60.652;2023-08-06T03:21:53;17.87;110.99
63899;HTU21D;50070;-32.946;-60.652;2023-08-06T03:24:20;17.62;113.21
63899;HTU21D;50070;-32.946;-60.652;2023-08-06T03:26:47;17.82;111.35
63899;HTU21D;50070;-32.946;-60.652;2023-08-06T03:29:14;17.72;112.47
63899;HTU21D;50070;-32.946;-60.652;2023-08-06T03:31:40;17.76;112.39
63899;HTU21D;50070;-32.946;-60.652;2023-08-06T03:34:07;17.62;114.33
63899;HTU21D;50070;-32.946;-60.652;2023-08-06T03:36:34;17.60;114.33
63899;HTU21D;50070;-32.946;-60.652;2023-08-06T03:39:01;17.70;113.48
63899;HTU21D;50070;-32.946;-60.652;2023-08-06T03:41:27;17.70;113.94
63899;HTU21D;50070;-32.946;-60.652;2023-08-06T03:43:54;17.80;112.61
63899;HTU21D;50070;-32.946;-60.652;2023-08-06T03:46:21;17.87;111.81
63899;HTU21D;50070;-32.946;-60.652;2023-08-06T03:48:47;17.91;111.73
63899;HTU21D;50070;-32.946;-60.652;2023-08-06T03:51:14;17.92;111.85
63899;HTU21D;50070;-32.946;-60.652;2023-08-06T03:53:41;18.03;110.87
63899;HTU21D;50070;-32.946;-60.652;2023-08-06T03:56:08;17.93;112.01
63899;HTU21D;50070;-32.946;-60.652;2023-08-06T03:58:35;17.88;112.54
63899;HTU21D;50070;-32.946;-60.652;2023-08-06T04:01:03;17.89;112.45
63899;HTU21D;50070;-32.946;-60.652;2023-08-06T04:03:30;17.91;112.48
63899;HTU21D;50070;-32.946;-60.652;2023-08-06T04:05:56;17.76;113.92
63899;HTU21D;50070;-32.946;-60.652;2023-08-06T04:08:23;17.91;112.07
63899;HTU21D;50070;-32.946;-60.652;2023-08-06T04:10:52;17.93;111.84
63899;HTU21D;50070;-32.946;-60.652;2023-08-06T04:13:19;17.97;111.53
63899;HTU21D;50070;-32.946;-60.652;2023-08-06T04:15:46;17.84;112.60
63899;HTU21D;50070;-32.946;-60.652;2023-08-06T04:18:14;17.76;112.87
63899;HTU21D;50070;-32.946;-60.652;2023-08-06T04:20:45;17.76;113.00
63899;HTU21D;50070;-32.946;-60.652;2023-08-06T04:23:13;17.63;114.16
63899;HTU21D;50070;-32.946;-60.652;2023-08-06T04:25:40;17.74;112.58
63899;HTU21D;50070;-32.946;-60.652;2023-08-06T04:28:07;17.60;113.78
63899;HTU21D;50070;-32.946;-60.652;2023-08-06T04:30:34;17.52;114.25
63899;HTU21D;50070;-32.946;-60.652;2023-08-06T04:33:01;17.40;115.52
63899;HTU21D;50070;-32.946;-60.652;2023-08-06T04:35:28;17.31;116.34
63899;HTU21D;50070;-32.946;-60.652;2023-08-06T04:37:54;17.36;116.43
63899;HTU21D;50070;-32.946;-60.652;2023-08-06T04:40:21;17.34;116.28
63899;HTU21D;50070;-32.946;-60.652;2023-08-06T04:42:48;17.21;116.93
63899;HTU21D;50070;-32.946;-60.652;2023-08-06T04:45:15;17.15;117.20
63899;HTU21D;50070;-32.946;-60.652;2023-08-06T04:47:41;17.29;116.05
63899;HTU21D;50070;-32.946;-60.652;2023-08-06T04:50:08;17.26;115.88
63899;HTU21D;50070;-32.946;-60.652;2023-08-06T04:52:36;17.23;116.35
63899;HTU21D;50070;-32.946;-60.652;2023-08-06T04:55:03;17.32;115.54
63899;HTU21D;50070;-32.946;-60.652;2023-08-06T04:57:32;17.06;117.81
63899;HTU21D;50070;-32.946;-60.652;2023-08-06T04:59:59;17.07;117.72
63899;HTU21D;50070;-32.946;-60.652;2023-08-06T05:02:25;17.08;117.12
63899;HTU21D;50070;-32.946;-60.652;2023-08-06T05:04:52;16.90;118.80
63899;HTU21D;50070;-32.946;-60.652;2023-08-06T05:07:19;16.98;117.99
63899;HTU21D;50070;-32.946;-60.652;2023-08-06T05:09:46;16.74;118.99
63899;HTU21D;50070;-32.946;-60.652;2023-08-06T05:12:12;17.02;117.74
63899;HTU21D;50070;-32.946;-60.652;2023-08-06T05:14:39;17.07;117.15
63899;HTU21D;50070;-32.946;-60.652;2023-08-06T05:17:06;16.82;118.99
63899;HTU21D;50070;-32.946;-60.652;2023-08-06T05:19:33;16.95;118.41
63899;HTU21D;50070;-32.946;-60.652;2023-08-06T05:21:59;16.95;118.66
63899;HTU21D;50070;-32.946;-60.652;2023-08-06T05:24:27;16.82;118.99
63899;HTU21D;50070;-32.946;-60.652;2023-08-06T05:26:54;16.88;118.99
63899;HTU21D;50070;-32.946;-60.652;2023-08-06T05:29:20;17.06;117.78
63899;HTU21D;50070;-32.946;-60.652;2023-08-06T05:31:47;17.15;117.00
63899;HTU21D;50070;-32.946;-60.652;2023-08-06T05:34:14;17.06;117.61
63899;HTU21D;50070;-32.946;-60.652;2023-08-06T05:36:41;17.07;117.48
63899;HTU21D;50070;-32.946;-60.652;2023-08-06T05:39:07;17.02;118.71
63899;HTU21D;50070;-32.946;-60.652;2023-08-06T05:41:34;16.73;118.99
63899;HTU21D;50070;-32.946;-60.652;2023-08-06T05:44:01;16.87;118.99
63899;HTU21D;50070;-32.946;-60.652;2023-08-06T05:46:28;17.07;118.31
63899;HTU21D;50070;-32.946;-60.652;2023-08-06T05:48:54;16.92;118.99
63899;HTU21D;50070;-32.946;-60.652;2023-08-06T05:51:21;16.67;118.99
63899;HTU21D;50070;-32.946;-60.652;2023-08-06T05:53:48;16.57;118.99
63899;HTU21D;50070;-32.946;-60.652;2023-08-06T05:56:16;16.80;118.99
63899;HTU21D;50070;-32.946;-60.652;2023-08-06T05:58:43;16.74;118.99
63899;HTU21D;50070;-32.946;-60.652;2023-08-06T06:01:10;16.92;118.99
63899;HTU21D;50070;-32.946;-60.652;2023-08-06T06:03:36;16.76;118.99
63899;HTU21D;50070;-32.946;-60.652;2023-08-06T06:06:03;16.81;118.99
63899;HTU21D;50070;-32.946;-60.652;2023-08-06T06:08:30;16.74;118.99
63899;HTU21D;50070;-32.946;-60.652;2023-08-06T06:10:57;16.59;118.99
63899;HTU21D;50070;-32.946;-60.652;2023-08-06T06:13:24;16.77;118.99
63899;HTU21D;50070;-32.946;-60.652;2023-08-06T06:15:54;16.46;118.99
63899;HTU21D;50070;-32.946;-60.652;2023-08-06T06:18:22;16.78;118.99
63899;HTU21D;50070;-32.946;-60.652;2023-08-06T06:20:49;16.76;118.99
63899;HTU21D;50070;-32.946;-60.652;2023-08-06T06:23:15;16.89;118.99
63899;HTU21D;50070;-32.946;-60.652;2023-08-06T06:25:44;16.90;118.99
63899;HTU21D;50070;-32.946;-60.652;2023-08-06T06:28:13;16.86;118.99
63899;HTU21D;50070;-32.946;-60.652;2023-08-06T06:30:41;17.08;118.08
63899;HTU21D;50070;-32.946;-60.652;2023-08-06T06:33:08;16.85;118.99
63899;HTU21D;50070;-32.946;-60.652;2023-08-06T06:35:35;16.75;118.99
63899;HTU21D;50070;-32.946;-60.652;2023-08-06T06:38:02;16.69;118.99
63899;HTU21D;50070;-32.946;-60.652;2023-08-06T06:40:28;16.65;118.99
63899;HTU21D;50070;-32.946;-60.652;2023-08-06T06:42:55;16.41;118.99
63899;HTU21D;50070;-32.946;-60.652;2023-08-06T06:45:22;16.49;118.99
63899;HTU21D;50070;-32.946;-60.652;2023-08-06T06:47:49;16.41;118.99
63899;HTU21D;50070;-32.946;-60.652;2023-08-06T06:50:15;16.50;118.99
63899;HTU21D;50070;-32.946;-60.652;2023-08-06T06:52:42;16.55;118.99
63899;HTU21D;50070;-32.946;-60.652;2023-08-06T06:55:09;16.13;118.99
63899;HTU21D;50070;-32.946;-60.652;2023-08-06T06:57:36;16.22;118.99
63899;HTU21D;50070;-32.946;-60.652;2023-08-06T07:00:03;16.34;118.99
63899;HTU21D;50070;-32.946;-60.652;2023-08-06T07:02:30;16.27;118.99
63899;HTU21D;50070;-32.946;-60.652;2023-08-06T07:04:56;16.42;118.99
63899;HTU21D;50070;-32.946;-60.652;2023-08-06T07:07:23;16.27;118.99
63899;HTU21D;50070;-32.946;-60.652;2023-08-06T07:09:49;16.37;118.99
63899;HTU21D;50070;-32.946;-60.652;2023-08-06T07:12:16;16.28;118.99
63899;HTU21D;50070;-32.946;-60.652;2023-08-06T07:14:43;16.32;118.99
63899;HTU21D;50070;-32.946;-60.652;2023-08-06T07:17:10;16.39;118.99
63899;HTU21D;50070;-32.946;-60.652;2023-08-06T07:19:36;16.42;118.99
63899;HTU21D;50070;-32.946;-60.652;2023-08-06T07:22:03;16.25;118.99
63899;HTU21D;50070;-32.946;-60.652;2023-08-06T07:24:30;16.25;118.99
63899;HTU21D;50070;-32.946;-60.652;2023-08-06T07:26:57;16.26;118.99
63899;HTU21D;50070;-32.946;-60.652;2023-08-06T07:29:23;16.31;118.99
63899;HTU21D;50070;-32.946;-60.652;2023-08-06T07:31:51;16.40;118.99
63899;HTU21D;50070;-32.946;-60.652;2023-08-06T07:34:18;16.28;118.99
63899;HTU21D;50070;-32.946;-60.652;2023-08-06T07:36:45;16.31;118.99
63899;HTU21D;50070;-32.946;-60.652;2023-08-06T07:39:12;16.30;118.99
63899;HTU21D;50070;-32.946;-60.652;2023-08-06T07:41:38;16.26;118.99
63899;HTU21D;50070;-32.946;-60.652;2023-08-06T07:44:05;16.22;118.99
63899;HTU21D;50070;-32.946;-60.652;2023-08-06T07:46:32;16.02;118.99
63899;HTU21D;50070;-32.946;-60.652;2023-08-06T07:48:59;16.02;118.99
63899;HTU21D;50070;-32.946;-60.652;2023-08-06T07:51:25;15.72;118.99
63899;HTU21D;50070;-32.946;-60.652;2023-08-06T07:53:52;15.87;118.99
63899;HTU21D;50070;-32.946;-60.652;2023-08-06T07:56:19;16.12;118.99
63899;HTU21D;50070;-32.946;-60.652;2023-08-06T07:58:46;16.03;118.99
63899;HTU21D;50070;-32.946;-60.652;2023-08-06T08:01:12;16.16;118.99
63899;HTU21D;50070;-32.946;-60.652;2023-08-06T08:03:39;16.03;118.99
63899;HTU21D;50070;-32.946;-60.652;2023-08-06T08:06:06;15.89;118.99
63899;HTU21D;50070;-32.946;-60.652;2023-08-06T08:08:33;15.92;118.99
63899;HTU21D;50070;-32.946;-60.652;2023-08-06T08:11:03;15.76;118.99
63899;HTU21D;50070;-32.946;-60.652;2023-08-06T08:13:30;15.86;118.99
63899;HTU21D;50070;-32.946;-60.652;2023-08-06T08:16:01;15.93;118.99
63899;HTU21D;50070;-32.946;-60.652;2023-08-06T08:18:28;15.63;118.99
63899;HTU21D;50070;-32.946;-60.652;2023-08-06T08:20:57;15.83;118.99
63899;HTU21D;50070;-32.946;-60.652;2023-08-06T08:23:23;15.70;118.99
63899;HTU21D;50070;-32.946;-60.652;2023-08-06T08:25:50;15.62;118.99
63899;HTU21D;50070;-32.946;-60.652;2023-08-06T08:28:17;15.95;118.99
63899;HTU21D;50070;-32.946;-60.652;2023-08-06T08:30:44;16.03;118.99
63899;HTU21D;50070;-32.946;-60.652;2023-08-06T08:33:11;15.81;118.99
63899;HTU21D;50070;-32.946;-60.652;2023-08-06T08:35:37;15.95;118.99
63899;HTU21D;50070;-32.946;-60.652;2023-08-06T08:38:04;15.80;118.99
63899;HTU21D;50070;-32.946;-60.652;2023-08-06T08:40:32;15.65;118.99
63899;HTU21D;50070;-32.946;-60.652;2023-08-06T08:43:00;15.89;118.99
63899;HTU21D;50070;-32.946;-60.652;2023-08-06T08:45:29;16.03;118.99
63899;HTU21D;50070;-32.946;-60.652;2023-08-06T08:47:56;16.00;118.99
63899;HTU21D;50070;-32.946;-60.652;2023-08-06T08:50:23;15.89;118.99
63899;HTU21D;50070;-32.946;-60.652;2023-08-06T08:52:50;15.90;118.99
63899;HTU21D;50070;-32.946;-60.652;2023-08-06T08:55:18;15.52;118.99
63899;HTU21D;50070;-32.946;-60.652;2023-08-06T08:57:47;15.59;118.99
63899;HTU21D;50070;-32.946;-60.652;2023-08-06T09:00:14;15.73;118.99
63899;HTU21D;50070;-32.946;-60.652;2023-08-06T09:02:42;15.72;118.99
63899;HTU21D;50070;-32.946;-60.652;2023-08-06T09:05:09;15.95;118.99
63899;HTU21D;50070;-32.946;-60.652;2023-08-06T09:07:42;15.91;118.99
63899;HTU21D;50070;-32.946;-60.652;2023-08-06T09:10:12;15.87;118.99
63899;HTU21D;50070;-32.946;-60.652;2023-08-06T09:12:40;16.08;118.99
63899;HTU21D;50070;-32.946;-60.652;2023-08-06T09:15:08;15.96;118.99
63899;HTU21D;50070;-32.946;-60.652;2023-08-06T09:17:35;15.92;118.99
63899;HTU21D;50070;-32.946;-60.652;2023-08-06T09:20:12;15.85;118.99
63899;HTU21D;50070;-32.946;-60.652;2023-08-06T09:22:39;15.93;118.99
63899;HTU21D;50070;-32.946;-60.652;2023-08-06T09:25:08;15.91;118.99
63899;HTU21D;50070;-32.946;-60.652;2023-08-06T09:27:39;15.83;118.99
63899;HTU21D;50070;-32.946;-60.652;2023-08-06T09:30:07;15.95;118.99
63899;HTU21D;50070;-32.946;-60.652;2023-08-06T09:32:54;15.95;118.99
63899;HTU21D;50070;-32.946;-60.652;2023-08-06T09:35:21;16.10;118.99
63899;HTU21D;50070;-32.946;-60.652;2023-08-06T09:37:48;16.08;118.99
63899;HTU21D;50070;-32.946;-60.652;2023-08-06T09:40:35;15.91;118.99
63899;HTU21D;50070;-32.946;-60.652;2023-08-06T09:43:03;16.00;118.99
63899;HTU21D;50070;-32.946;-60.652;2023-08-06T09:45:37;15.92;118.99
63899;HTU21D;50070;-32.946;-60.652;2023-08-06T09:48:05;16.06;118.99
63899;HTU21D;50070;-32.946;-60.652;2023-08-06T09:50:34;16.01;118.99
63899;HTU21D;50070;-32.946;-60.652;2023-08-06T09:53:07;15.99;118.99
63899;HTU21D;50070;-32.946;-60.652;2023-08-06T09:55:37;16.14;118.99
63899;HTU21D;50070;-32.946;-60.652;2023-08-06T09:58:04;15.95;118.99
63899;HTU21D;50070;-32.946;-60.652;2023-08-06T10:00:33;15.75;118.99
63899;HTU21D;50070;-32.946;-60.652;2023-08-06T10:03:01;15.84;118.99
63899;HTU21D;50070;-32.946;-60.652;2023-08-06T10:05:30;16.02;118.99
63899;HTU21D;50070;-32.946;-60.652;2023-08-06T10:07:59;15.92;118.99
63899;HTU21D;50070;-32.946;-60.652;2023-08-06T10:10:27;15.56;118.99
63899;HTU21D;50070;-32.946;-60.652;2023-08-06T10:12:56;15.58;118.99
63899;HTU21D;50070;-32.946;-60.652;2023-08-06T10:15:30;15.60;118.99
63899;HTU21D;50070;-32.946;-60.652;2023-08-06T10:17:58;15.84;118.99
63899;HTU21D;50070;-32.946;-60.652;2023-08-06T10:20:26;15.68;118.99
63899;HTU21D;50070;-32.946;-60.652;2023-08-06T10:23:06;15.69;118.99
63899;HTU21D;50070;-32.946;-60.652;2023-08-06T10:25:36;15.82;118.99
63899;HTU21D;50070;-32.946;-60.652;2023-08-06T10:28:11;15.80;118.99
63899;HTU21D;50070;-32.946;-60.652;2023-08-06T10:30:44;15.69;118.99
63899;HTU21D;50070;-32.946;-60.652;2023-08-06T10:33:12;16.01;118.99
63899;HTU21D;50070;-32.946;-60.652;2023-08-06T10:35:47;15.98;118.99
63899;HTU21D;50070;-32.946;-60.652;2023-08-06T10:38:20;15.98;118.99
63899;HTU21D;50070;-32.946;-60.652;2023-08-06T10:43:27;15.89;118.99
63899;HTU21D;50070;-32.946;-60.652;2023-08-06T10:45:55;16.05;118.99
63899;HTU21D;50070;-32.946;-60.652;2023-08-06T10:48:35;16.20;118.99
63899;HTU21D;50070;-32.946;-60.652;2023-08-06T10:51:07;15.84;118.99
63899;HTU21D;50070;-32.946;-60.652;2023-08-06T10:53:36;15.46;118.99
63899;HTU21D;50070;-32.946;-60.652;2023-08-06T10:56:15;15.27;118.99
63899;HTU21D;50070;-32.946;-60.652;2023-08-06T10:58:43;15.25;118.99
63899;HTU21D;50070;-32.946;-60.652;2023-08-06T11:01:10;15.31;118.99
63899;HTU21D;50070;-32.946;-60.652;2023-08-06T11:03:37;15.41;118.99
63899;HTU21D;50070;-32.946;-60.652;2023-08-06T11:06:07;15.54;118.99
63899;HTU21D;50070;-32.946;-60.652;2023-08-06T11:08:36;15.45;118.99
63899;HTU21D;50070;-32.946;-60.652;2023-08-06T11:11:14;15.44;118.99
63899;HTU21D;50070;-32.946;-60.652;2023-08-06T11:13:45;15.43;118.99
63899;HTU21D;50070;-32.946;-60.652;2023-08-06T11:16:22;15.52;118.99
63899;HTU21D;50070;-32.946;-60.652;2023-08-06T11:18:52;15.37;118.99
63899;HTU21D;50070;-32.946;-60.652;2023-08-06T11:21:23;15.25;118.99
63899;HTU21D;50070;-32.946;-60.652;2023-08-06T11:23:53;15.47;118.99
63899;HTU21D;50070;-32.946;-60.652;2023-08-06T11:26:21;15.23;118.99
63899;HTU21D;50070;-32.946;-60.652;2023-08-06T11:28:49;15.24;118.99
63899;HTU21D;50070;-32.946;-60.652;2023-08-06T11:31:20;15.14;118.99
63899;HTU21D;50070;-32.946;-60.652;2023-08-06T11:33:49;15.27;118.99
63899;HTU21D;50070;-32.946;-60.652;2023-08-06T11:36:16;15.34;118.99
63899;HTU21D;50070;-32.946;-60.652;2023-08-06T11:38:43;15.32;118.99
63899;HTU21D;50070;-32.946;-60.652;2023-08-06T11:41:10;15.42;118.99
63899;HTU21D;50070;-32.946;-60.652;2023-08-06T11:43:38;15.40;118.99
63899;HTU21D;50070;-32.946;-60.652;2023-08-06T11:46:05;15.38;118.99
63899;HTU21D;50070;-32.946;-60.652;2023-08-06T11:48:32;15.60;118.99
63899;HTU21D;50070;-32.946;-60.652;2023-08-06T11:50:58;15.66;118.99
63899;HTU21D;50070;-32.946;-60.652;2023-08-06T11:53:28;15.68;118.99
63899;HTU21D;50070;-32.946;-60.652;2023-08-06T11:55:55;15.77;118.99
63899;HTU21D;50070;-32.946;-60.652;2023-08-06T11:58:22;15.96;118.99
63899;HTU21D;50070;-32.946;-60.652;2023-08-06T12:00:49;16.25;118.99
63899;HTU21D;50070;-32.946;-60.652;2023-08-06T12:03:19;16.01;118.99
63899;HTU21D;50070;-32.946;-60.652;2023-08-06T12:05:46;16.08;118.99
63899;HTU21D;50070;-32.946;-60.652;2023-08-06T12:08:13;16.15;118.99
63899;HTU21D;50070;-32.946;-60.652;2023-08-06T12:10:39;15.98;118.99
63899;HTU21D;50070;-32.946;-60.652;2023-08-06T12:13:06;15.89;118.99
63899;HTU21D;50070;-32.946;-60.652;2023-08-06T12:15:33;15.83;118.99
63899;HTU21D;50070;-32.946;-60.652;2023-08-06T12:17:59;15.98;118.99
63899;HTU21D;50070;-32.946;-60.652;2023-08-06T12:20:26;16.05;118.99
63899;HTU21D;50070;-32.946;-60.652;2023-08-06T12:22:54;16.10;118.99
63899;HTU21D;50070;-32.946;-60.652;2023-08-06T12:25:21;16.08;118.99
63899;HTU21D;50070;-32.946;-60.652;2023-08-06T12:27:49;16.13;118.99
63899;HTU21D;50070;-32.946;-60.652;2023-08-06T12:30:16;16.18;118.99
63899;HTU21D;50070;-32.946;-60.652;2023-08-06T12:32:43;16.28;118.99
63899;HTU21D;50070;-32.946;-60.652;2023-08-06T12:35:09;16.58;118.99
63899;HTU21D;50070;-32.946;-60.652;2023-08-06T12:37:36;16.75;118.99
63899;HTU21D;50070;-32.946;-60.652;2023-08-06T12:40:05;16.77;118.99
63899;HTU21D;50070;-32.946;-60.652;2023-08-06T12:42:32;17.00;118.99
63899;HTU21D;50070;-32.946;-60.652;2023-08-06T12:44:59;16.92;118.99
63899;HTU21D;50070;-32.946;-60.652;2023-08-06T12:47:25;16.84;118.99
63899;HTU21D;50070;-32.946;-60.652;2023-08-06T12:49:52;16.95;118.99
63899;HTU21D;50070;-32.946;-60.652;2023-08-06T12:52:19;16.95;118.99
63899;HTU21D;50070;-32.946;-60.652;2023-08-06T12:54:46;17.18;118.99
63899;HTU21D;50070;-32.946;-60.652;2023-08-06T12:57:13;17.18;118.99
63899;HTU21D;50070;-32.946;-60.652;2023-08-06T12:59:40;17.29;118.99
63899;HTU21D;50070;-32.946;-60.652;2023-08-06T13:02:07;17.44;118.99
63899;HTU21D;50070;-32.946;-60.652;2023-08-06T13:04:33;17.47;118.99
63899;HTU21D;50070;-32.946;-60.652;2023-08-06T13:07:00;17.48;118.99
63899;HTU21D;50070;-32.946;-60.652;2023-08-06T13:09:27;17.33;118.99
63899;HTU21D;50070;-32.946;-60.652;2023-08-06T13:11:53;17.35;118.99
63899;HTU21D;50070;-32.946;-60.652;2023-08-06T13:14:20;17.54;118.99
63899;HTU21D;50070;-32.946;-60.652;2023-08-06T13:16:47;17.38;118.99
63899;HTU21D;50070;-32.946;-60.652;2023-08-06T13:19:14;17.40;118.99
63899;HTU21D;50070;-32.946;-60.652;2023-08-06T13:24:08;17.18;118.99
63899;HTU21D;50070;-32.946;-60.652;2023-08-06T13:26:35;17.10;118.99
63899;HTU21D;50070;-32.946;-60.652;2023-08-06T13:29:02;17.26;118.99
63899;HTU21D;50070;-32.946;-60.652;2023-08-06T13:31:29;17.39;118.99
63899;HTU21D;50070;-32.946;-60.652;2023-08-06T13:33:56;17.41;118.99
63899;HTU21D;50070;-32.946;-60.652;2023-08-06T13:36:25;17.29;118.99
63899;HTU21D;50070;-32.946;-60.652;2023-08-06T13:38:52;17.30;118.99
63899;HTU21D;50070;-32.946;-60.652;2023-08-06T13:41:19;17.33;118.99
63899;HTU21D;50070;-32.946;-60.652;2023-08-06T13:43:46;17.43;118.99
63899;HTU21D;50070;-32.946;-60.652;2023-08-06T13:46:12;17.52;118.99
63899;HTU21D;50070;-32.946;-60.652;2023-08-06T13:48:43;17.91;118.99
63899;HTU21D;50070;-32.946;-60.652;2023-08-06T13:51:11;18.08;118.99
63899;HTU21D;50070;-32.946;-60.652;2023-08-06T13:53:38;18.19;118.99
63899;HTU21D;50070;-32.946;-60.652;2023-08-06T13:56:06;18.23;118.99
63899;HTU21D;50070;-32.946;-60.652;2023-08-06T13:58:34;18.33;118.99
63899;HTU21D;50070;-32.946;-60.652;2023-08-06T14:01:00;18.50;118.99
63899;HTU21D;50070;-32.946;-60.652;2023-08-06T14:03:27;18.57;118.99
63899;HTU21D;50070;-32.946;-60.652;2023-08-06T14:05:54;18.64;118.99
63899;HTU21D;50070;-32.946;-60.652;2023-08-06T14:08:24;18.84;118.99
63899;HTU21D;50070;-32.946;-60.652;2023-08-06T14:10:51;19.29;118.99
63899;HTU21D;50070;-32.946;-60.652;2023-08-06T14:13:18;19.28;118.99
63899;HTU21D;50070;-32.946;-60.652;2023-08-06T14:15:45;19.29;118.99
63899;HTU21D;50070;-32.946;-60.652;2023-08-06T14:18:17;19.35;118.99
63899;HTU21D;50070;-32.946;-60.652;2023-08-06T14:20:44;19.60;118.99
63899;HTU21D;50070;-32.946;-60.652;2023-08-06T14:23:11;19.55;118.99
63899;HTU21D;50070;-32.946;-60.652;2023-08-06T14:25:38;19.82;118.99
63899;HTU21D;50070;-32.946;-60.652;2023-08-06T14:28:06;20.05;118.99
63899;HTU21D;50070;-32.946;-60.652;2023-08-06T14:30:33;20.02;118.99
63899;HTU21D;50070;-32.946;-60.652;2023-08-06T14:33:01;20.15;118.99
63899;HTU21D;50070;-32.946;-60.652;2023-08-06T14:35:27;20.16;118.99